sensor_id;sensor_type;location;lat;lon;timestamp;P1;durP1;ratioP1;P2;durP2;ratioP2
21386;SDS011;10854;45.922;6.716;2023-07-24T00:00:00;17.10;;;12.13;;
21386;SDS011;10854;45.922;6.716;2023-07-24T00:02:28;14.77;;;11.30;;
21386;SDS011;10854;45.922;6.716;2023-07-24T00:04:57;15.73;;;11.63;;
21386;SDS011;10854;45.922;6.716;2023-07-24T00:07:25;16.53;;;12.43;;
21386;SDS011;10854;45.922;6.716;2023-07-24T00:09:54;19.83;;;15.37;;
21386;SDS011;10854;45.922;6.716;2023-07-24T00:12:23;37.60;;;28.10;;
21386;SDS011;10854;45.922;6.716;2023-07-24T00:14:51;26.30;;;20.20;;
21386;SDS011;10854;45.922;6.716;2023-07-24T00:17:20;18.40;;;13.30;;
21386;SDS011;10854;45.922;6.716;2023-07-24T00:19:49;16.77;;;13.50;;
21386;SDS011;10854;45.922;6.716;2023-07-24T00:22:18;15.30;;;12.03;;
21386;SDS011;10854;45.922;6.716;2023-07-24T00:24:46;16.43;;;12.23;;
21386;SDS011;10854;45.922;6.716;2023-07-24T00:27:16;16.60;;;12.30;;
21386;SDS011;10854;45.922;6.716;2023-07-24T00:29:44;16.10;;;12.07;;
21386;SDS011;10854;45.922;6.716;2023-07-24T00:32:13;15.13;;;12.07;;
21386;SDS011;10854;45.922;6.716;2023-07-24T00:34:41;14.80;;;11.63;;
21386;SDS011;10854;45.922;6.716;2023-07-24T00:37:09;16.17;;;10.93;;
21386;SDS011;10854;45.922;6.716;2023-07-24T00:39:38;15.97;;;11.93;;
21386;SDS011;10854;45.922;6.716;2023-07-24T00:42:06;16.50;;;11.37;;
21386;SDS011;10854;45.922;6.716;2023-07-24T00:44:35;13.93;;;10.60;;
21386;SDS011;10854;45.922;6.716;2023-07-24T00:47:04;13.07;;;10.03;;
21386;SDS011;10854;45.922;6.716;2023-07-24T00:49:33;12.13;;;9.43;;
21386;SDS011;10854;45.922;6.716;2023-07-24T00:52:02;14.27;;;10.57;;
21386;SDS011;10854;45.922;6.716;2023-07-24T00:54:31;16.17;;;10.50;;
21386;SDS011;10854;45.922;6.716;2023-07-24T00:57:02;12.80;;;10.70;;
21386;SDS011;10854;45.922;6.716;2023-07-24T00:59:32;14.77;;;10.77;;
21386;SDS011;10854;45.922;6.716;2023-07-24T01:02:00;15.00;;;11.00;;
21386;SDS011;10854;45.922;6.716;2023-07-24T01:04:29;15.77;;;11.80;;
21386;SDS011;10854;45.922;6.716;2023-07-24T01:06:58;16.43;;;12.77;;
21386;SDS011;10854;45.922;6.716;2023-07-24T01:09:26;15.93;;;13.23;;
21386;SDS011;10854;45.922;6.716;2023-07-24T01:14:42;14.73;;;10.00;;
21386;SDS011;10854;45.922;6.716;2023-07-24T01:17:20;13.83;;;9.90;;
21386;SDS011;10854;45.922;6.716;2023-07-24T01:19:53;13.53;;;10.40;;
21386;SDS011;10854;45.922;6.716;2023-07-24T01:25:05;13.27;;;10.23;;
21386;SDS011;10854;45.922;6.716;2023-07-24T01:27:54;13.13;;;9.63;;
21386;SDS011;10854;45.922;6.716;2023-07-24T01:30:23;12.13;;;9.73;;
21386;SDS011;10854;45.922;6.716;2023-07-24T01:32:51;12.33;;;9.63;;
21386;SDS011;10854;45.922;6.716;2023-07-24T01:35:20;12.03;;;10.00;;
21386;SDS011;10854;45.922;6.716;2023-07-24T01:37:49;14.73;;;10.50;;
21386;SDS011;10854;45.922;6.716;2023-07-24T01:40:18;13.97;;;10.90;;
21386;SDS011;10854;45.922;6.716;2023-07-24T01:42:48;13.53;;;10.23;;
21386;SDS011;10854;45.922;6.716;2023-07-24T01:45:17;13.10;;;10.37;;
21386;SDS011;10854;45.922;6.716;2023-07-24T01:47:46;14.03;;;10.70;;
21386;SDS011;10854;45.922;6.716;2023-07-24T01:50:14;14.33;;;10.60;;
21386;SDS011;10854;45.922;6.716;2023-07-24T01:52:43;13.23;;;9.97;;
21386;SDS011;10854;45.922;6.716;2023-07-24T01:55:12;12.80;;;9.80;;
21386;SDS011;10854;45.922;6.716;2023-07-24T01:57:41;14.13;;;10.60;;
21386;SDS011;10854;45.922;6.716;2023-07-24T02:00:09;12.93;;;9.90;;
21386;SDS011;10854;45.922;6.716;2023-07-24T02:02:38;13.27;;;9.57;;
21386;SDS011;10854;45.922;6.716;2023-07-24T02:05:07;14.40;;;9.70;;
21386;SDS011;10854;45.922;6.716;2023-07-24T02:07:36;12.23;;;9.50;;
21386;SDS011;10854;45.922;6.716;2023-07-24T02:10:05;12.57;;;9.57;;
21386;SDS011;10854;45.922;6.716;2023-07-24T02:12:33;12.23;;;10.07;;
21386;SDS011;10854;45.922;6.716;2023-07-24T02:15:02;13.33;;;10.57;;
21386;SDS011;10854;45.922;6.716;2023-07-24T02:17:30;14.77;;;10.50;;
21386;SDS011;10854;45.922;6.716;2023-07-24T02:19:59;12.93;;;9.90;;
21386;SDS011;10854;45.922;6.716;2023-07-24T02:22:27;14.00;;;10.00;;
21386;SDS011;10854;45.922;6.716;2023-07-24T02:24:56;14.20;;;11.10;;
21386;SDS011;10854;45.922;6.716;2023-07-24T02:27:25;11.07;;;8.97;;
21386;SDS011;10854;45.922;6.716;2023-07-24T02:29:58;12.03;;;9.17;;
21386;SDS011;10854;45.922;6.716;2023-07-24T02:32:27;13.00;;;9.00;;
21386;SDS011;10854;45.922;6.716;2023-07-24T02:34:56;14.90;;;9.37;;
21386;SDS011;10854;45.922;6.716;2023-07-24T02:37:24;11.07;;;9.27;;
21386;SDS011;10854;45.922;6.716;2023-07-24T02:39:54;11.83;;;9.33;;
21386;SDS011;10854;45.922;6.716;2023-07-24T02:42:24;12.17;;;9.23;;
21386;SDS011;10854;45.922;6.716;2023-07-24T02:44:52;15.13;;;9.87;;
21386;SDS011;10854;45.922;6.716;2023-07-24T02:47:22;11.70;;;9.87;;
21386;SDS011;10854;45.922;6.716;2023-07-24T02:49:51;13.57;;;10.30;;
21386;SDS011;10854;45.922;6.716;2023-07-24T02:52:19;16.73;;;10.27;;
21386;SDS011;10854;45.922;6.716;2023-07-24T02:54:48;12.23;;;10.20;;
21386;SDS011;10854;45.922;6.716;2023-07-24T02:57:16;12.00;;;8.80;;
21386;SDS011;10854;45.922;6.716;2023-07-24T02:59:45;13.00;;;9.90;;
21386;SDS011;10854;45.922;6.716;2023-07-24T03:02:14;12.17;;;7.93;;
21386;SDS011;10854;45.922;6.716;2023-07-24T03:04:43;17.03;;;9.20;;
21386;SDS011;10854;45.922;6.716;2023-07-24T03:07:11;13.50;;;7.90;;
21386;SDS011;10854;45.922;6.716;2023-07-24T03:09:41;12.70;;;9.80;;
21386;SDS011;10854;45.922;6.716;2023-07-24T03:12:09;13.80;;;9.10;;
21386;SDS011;10854;45.922;6.716;2023-07-24T03:14:38;14.30;;;9.70;;
21386;SDS011;10854;45.922;6.716;2023-07-24T03:17:07;12.53;;;9.10;;
21386;SDS011;10854;45.922;6.716;2023-07-24T03:19:37;11.33;;;7.77;;
21386;SDS011;10854;45.922;6.716;2023-07-24T03:22:06;8.37;;;7.00;;
21386;SDS011;10854;45.922;6.716;2023-07-24T03:24:34;9.77;;;7.10;;
21386;SDS011;10854;45.922;6.716;2023-07-24T03:27:03;8.23;;;5.80;;
21386;SDS011;10854;45.922;6.716;2023-07-24T03:29:32;8.90;;;6.43;;
21386;SDS011;10854;45.922;6.716;2023-07-24T03:32:00;5.53;;;4.40;;
21386;SDS011;10854;45.922;6.716;2023-07-24T03:34:29;5.47;;;4.40;;
21386;SDS011;10854;45.922;6.716;2023-07-24T03:36:58;6.33;;;5.67;;
21386;SDS011;10854;45.922;6.716;2023-07-24T03:39:26;5.57;;;4.97;;
21386;SDS011;10854;45.922;6.716;2023-07-24T03:41:55;5.90;;;5.17;;
21386;SDS011;10854;45.922;6.716;2023-07-24T03:44:23;7.13;;;5.23;;
21386;SDS011;10854;45.922;6.716;2023-07-24T03:46:52;5.93;;;5.33;;
21386;SDS011;10854;45.922;6.716;2023-07-24T03:49:20;8.10;;;5.27;;
21386;SDS011;10854;45.922;6.716;2023-07-24T03:51:50;5.53;;;4.27;;
21386;SDS011;10854;45.922;6.716;2023-07-24T03:54:18;7.80;;;6.23;;
21386;SDS011;10854;45.922;6.716;2023-07-24T03:56:46;8.37;;;6.00;;
21386;SDS011;10854;45.922;6.716;2023-07-24T03:59:15;8.53;;;6.10;;
21386;SDS011;10854;45.922;6.716;2023-07-24T04:01:43;5.90;;;5.27;;
21386;SDS011;10854;45.922;6.716;2023-07-24T04:04:12;8.53;;;4.73;;
21386;SDS011;10854;45.922;6.716;2023-07-24T04:06:40;7.27;;;5.97;;
21386;SDS011;10854;45.922;6.716;2023-07-24T04:09:09;7.97;;;5.03;;
21386;SDS011;10854;45.922;6.716;2023-07-24T04:11:44;6.03;;;5.03;;
21386;SDS011;10854;45.922;6.716;2023-07-24T04:14:13;5.17;;;4.00;;
21386;SDS011;10854;45.922;6.716;2023-07-24T04:16:41;7.53;;;4.87;;
21386;SDS011;10854;45.922;6.716;2023-07-24T04:19:10;7.17;;;5.10;;
21386;SDS011;10854;45.922;6.716;2023-07-24T04:21:38;8.87;;;5.23;;
21386;SDS011;10854;45.922;6.716;2023-07-24T04:24:07;6.63;;;5.40;;
21386;SDS011;10854;45.922;6.716;2023-07-24T04:26:36;8.47;;;5.30;;
21386;SDS011;10854;45.922;6.716;2023-07-24T04:29:04;8.27;;;5.17;;
21386;SDS011;10854;45.922;6.716;2023-07-24T04:31:34;7.77;;;5.60;;
21386;SDS011;10854;45.922;6.716;2023-07-24T04:34:03;8.10;;;5.10;;
21386;SDS011;10854;45.922;6.716;2023-07-24T04:36:31;9.97;;;5.70;;
21386;SDS011;10854;45.922;6.716;2023-07-24T04:38:59;6.60;;;5.10;;
21386;SDS011;10854;45.922;6.716;2023-07-24T04:41:28;6.07;;;5.40;;
21386;SDS011;10854;45.922;6.716;2023-07-24T04:43:56;6.30;;;5.70;;
21386;SDS011;10854;45.922;6.716;2023-07-24T04:46:25;7.57;;;6.13;;
21386;SDS011;10854;45.922;6.716;2023-07-24T04:48:53;7.80;;;5.97;;
21386;SDS011;10854;45.922;6.716;2023-07-24T04:51:22;7.17;;;5.37;;
21386;SDS011;10854;45.922;6.716;2023-07-24T04:53:50;6.13;;;5.27;;
21386;SDS011;10854;45.922;6.716;2023-07-24T04:56:19;5.67;;;4.37;;
21386;SDS011;10854;45.922;6.716;2023-07-24T04:58:47;5.77;;;4.40;;
21386;SDS011;10854;45.922;6.716;2023-07-24T05:01:16;5.97;;;4.63;;
21386;SDS011;10854;45.922;6.716;2023-07-24T05:03:44;5.57;;;4.73;;
21386;SDS011;10854;45.922;6.716;2023-07-24T05:06:12;5.20;;;3.87;;
21386;SDS011;10854;45.922;6.716;2023-07-24T05:08:41;5.67;;;4.03;;
21386;SDS011;10854;45.922;6.716;2023-07-24T05:11:09;5.30;;;3.93;;
21386;SDS011;10854;45.922;6.716;2023-07-24T05:13:38;5.73;;;4.10;;
21386;SDS011;10854;45.922;6.716;2023-07-24T05:16:06;6.80;;;4.20;;
21386;SDS011;10854;45.922;6.716;2023-07-24T05:18:35;5.17;;;4.40;;
21386;SDS011;10854;45.922;6.716;2023-07-24T05:21:05;6.47;;;4.20;;
21386;SDS011;10854;45.922;6.716;2023-07-24T05:23:34;6.67;;;4.60;;
21386;SDS011;10854;45.922;6.716;2023-07-24T05:26:03;6.20;;;4.37;;
21386;SDS011;10854;45.922;6.716;2023-07-24T05:28:31;5.97;;;4.33;;
21386;SDS011;10854;45.922;6.716;2023-07-24T05:31:01;8.03;;;4.83;;
21386;SDS011;10854;45.922;6.716;2023-07-24T05:33:30;8.87;;;5.43;;
21386;SDS011;10854;45.922;6.716;2023-07-24T05:36:04;10.37;;;4.90;;
21386;SDS011;10854;45.922;6.716;2023-07-24T05:38:32;8.17;;;5.00;;
21386;SDS011;10854;45.922;6.716;2023-07-24T05:41:02;6.53;;;4.50;;
21386;SDS011;10854;45.922;6.716;2023-07-24T05:43:31;7.87;;;5.20;;
21386;SDS011;10854;45.922;6.716;2023-07-24T05:46:00;6.07;;;5.03;;
21386;SDS011;10854;45.922;6.716;2023-07-24T05:48:33;6.07;;;5.10;;
21386;SDS011;10854;45.922;6.716;2023-07-24T05:51:02;6.13;;;4.53;;
21386;SDS011;10854;45.922;6.716;2023-07-24T05:53:31;7.00;;;4.80;;
21386;SDS011;10854;45.922;6.716;2023-07-24T05:56:00;6.53;;;4.27;;
21386;SDS011;10854;45.922;6.716;2023-07-24T05:58:29;6.97;;;4.27;;
21386;SDS011;10854;45.922;6.716;2023-07-24T06:00:58;5.50;;;4.20;;
21386;SDS011;10854;45.922;6.716;2023-07-24T06:03:27;5.97;;;4.50;;
21386;SDS011;10854;45.922;6.716;2023-07-24T06:05:56;8.23;;;4.50;;
21386;SDS011;10854;45.922;6.716;2023-07-24T06:08:24;5.23;;;4.50;;
21386;SDS011;10854;45.922;6.716;2023-07-24T06:10:53;6.97;;;4.60;;
21386;SDS011;10854;45.922;6.716;2023-07-24T06:13:22;8.53;;;5.17;;
21386;SDS011;10854;45.922;6.716;2023-07-24T06:15:53;7.27;;;5.63;;
21386;SDS011;10854;45.922;6.716;2023-07-24T06:18:21;10.60;;;6.00;;
21386;SDS011;10854;45.922;6.716;2023-07-24T06:20:53;9.37;;;5.20;;
21386;SDS011;10854;45.922;6.716;2023-07-24T06:23:22;6.47;;;5.27;;
21386;SDS011;10854;45.922;6.716;2023-07-24T06:25:50;5.27;;;4.33;;
21386;SDS011;10854;45.922;6.716;2023-07-24T06:28:20;5.83;;;4.30;;
21386;SDS011;10854;45.922;6.716;2023-07-24T06:30:51;5.57;;;4.87;;
21386;SDS011;10854;45.922;6.716;2023-07-24T06:33:21;6.63;;;4.87;;
21386;SDS011;10854;45.922;6.716;2023-07-24T06:35:50;6.57;;;5.30;;
21386;SDS011;10854;45.922;6.716;2023-07-24T06:38:18;6.43;;;4.60;;
21386;SDS011;10854;45.922;6.716;2023-07-24T06:40:49;6.73;;;5.07;;
21386;SDS011;10854;45.922;6.716;2023-07-24T06:43:18;7.37;;;4.63;;
21386;SDS011;10854;45.922;6.716;2023-07-24T06:45:46;5.60;;;4.60;;
21386;SDS011;10854;45.922;6.716;2023-07-24T06:48:15;5.93;;;4.77;;
21386;SDS011;10854;45.922;6.716;2023-07-24T06:50:43;5.83;;;4.47;;
21386;SDS011;10854;45.922;6.716;2023-07-24T06:53:13;5.70;;;4.10;;
21386;SDS011;10854;45.922;6.716;2023-07-24T06:55:41;8.63;;;5.30;;
21386;SDS011;10854;45.922;6.716;2023-07-24T06:58:10;6.90;;;5.30;;
21386;SDS011;10854;45.922;6.716;2023-07-24T07:00:38;8.10;;;5.10;;
21386;SDS011;10854;45.922;6.716;2023-07-24T07:03:07;6.97;;;5.10;;
21386;SDS011;10854;45.922;6.716;2023-07-24T07:05:35;7.10;;;5.40;;
21386;SDS011;10854;45.922;6.716;2023-07-24T07:08:04;8.80;;;5.73;;
21386;SDS011;10854;45.922;6.716;2023-07-24T07:10:33;10.10;;;5.20;;
21386;SDS011;10854;45.922;6.716;2023-07-24T07:13:01;9.20;;;5.33;;
21386;SDS011;10854;45.922;6.716;2023-07-24T07:15:30;9.77;;;5.50;;
21386;SDS011;10854;45.922;6.716;2023-07-24T07:17:58;9.03;;;5.43;;
21386;SDS011;10854;45.922;6.716;2023-07-24T07:20:27;7.23;;;5.27;;
21386;SDS011;10854;45.922;6.716;2023-07-24T07:22:56;6.27;;;4.73;;
21386;SDS011;10854;45.922;6.716;2023-07-24T07:25:24;6.90;;;4.70;;
21386;SDS011;10854;45.922;6.716;2023-07-24T07:27:53;4.93;;;3.77;;
21386;SDS011;10854;45.922;6.716;2023-07-24T07:30:22;7.60;;;4.43;;
21386;SDS011;10854;45.922;6.716;2023-07-24T07:32:50;6.90;;;4.40;;
21386;SDS011;10854;45.922;6.716;2023-07-24T07:35:19;7.43;;;4.60;;
21386;SDS011;10854;45.922;6.716;2023-07-24T07:37:47;4.97;;;4.17;;
21386;SDS011;10854;45.922;6.716;2023-07-24T07:40:17;6.03;;;4.63;;
21386;SDS011;10854;45.922;6.716;2023-07-24T07:42:45;6.80;;;4.93;;
21386;SDS011;10854;45.922;6.716;2023-07-24T07:45:14;5.87;;;4.47;;
21386;SDS011;10854;45.922;6.716;2023-07-24T07:47:43;5.27;;;4.13;;
21386;SDS011;10854;45.922;6.716;2023-07-24T07:50:11;5.10;;;3.43;;
21386;SDS011;10854;45.922;6.716;2023-07-24T07:52:40;4.93;;;3.90;;
21386;SDS011;10854;45.922;6.716;2023-07-24T07:55:08;4.47;;;3.97;;
21386;SDS011;10854;45.922;6.716;2023-07-24T07:57:38;6.47;;;3.73;;
21386;SDS011;10854;45.922;6.716;2023-07-24T08:00:07;5.63;;;3.97;;
21386;SDS011;10854;45.922;6.716;2023-07-24T08:02:36;5.03;;;3.70;;
21386;SDS011;10854;45.922;6.716;2023-07-24T08:05:08;5.53;;;3.60;;
21386;SDS011;10854;45.922;6.716;2023-07-24T08:07:40;4.50;;;3.43;;
21386;SDS011;10854;45.922;6.716;2023-07-24T08:10:09;5.67;;;3.33;;
21386;SDS011;10854;45.922;6.716;2023-07-24T08:12:37;4.37;;;3.37;;
21386;SDS011;10854;45.922;6.716;2023-07-24T08:15:06;4.50;;;3.30;;
21386;SDS011;10854;45.922;6.716;2023-07-24T08:17:35;5.53;;;3.63;;
21386;SDS011;10854;45.922;6.716;2023-07-24T08:20:04;5.83;;;3.43;;
21386;SDS011;10854;45.922;6.716;2023-07-24T08:22:33;5.60;;;3.27;;
21386;SDS011;10854;45.922;6.716;2023-07-24T08:25:01;4.07;;;3.60;;
21386;SDS011;10854;45.922;6.716;2023-07-24T08:27:30;4.80;;;3.40;;
21386;SDS011;10854;45.922;6.716;2023-07-24T08:30:02;5.30;;;3.57;;
21386;SDS011;10854;45.922;6.716;2023-07-24T08:32:32;6.27;;;4.00;;
21386;SDS011;10854;45.922;6.716;2023-07-24T08:35:01;5.03;;;4.00;;
21386;SDS011;10854;45.922;6.716;2023-07-24T08:37:29;4.80;;;3.73;;
21386;SDS011;10854;45.922;6.716;2023-07-24T08:39:57;4.87;;;4.10;;
21386;SDS011;10854;45.922;6.716;2023-07-24T08:42:29;8.27;;;4.17;;
21386;SDS011;10854;45.922;6.716;2023-07-24T08:45:00;5.07;;;3.35;;
21386;SDS011;10854;45.922;6.716;2023-07-24T08:47:29;5.88;;;3.53;;
21386;SDS011;10854;45.922;6.716;2023-07-24T08:49:58;5.43;;;3.10;;
21386;SDS011;10854;45.922;6.716;2023-07-24T08:52:29;4.30;;;3.08;;
21386;SDS011;10854;45.922;6.716;2023-07-24T08:55:01;5.10;;;3.22;;
21386;SDS011;10854;45.922;6.716;2023-07-24T08:57:32;4.35;;;3.33;;
21386;SDS011;10854;45.922;6.716;2023-07-24T09:00:02;5.13;;;2.92;;
21386;SDS011;10854;45.922;6.716;2023-07-24T09:02:35;6.85;;;3.63;;
21386;SDS011;10854;45.922;6.716;2023-07-24T09:05:09;7.28;;;3.55;;
21386;SDS011;10854;45.922;6.716;2023-07-24T09:07:39;3.75;;;3.10;;
21386;SDS011;10854;45.922;6.716;2023-07-24T09:10:07;4.65;;;3.10;;
21386;SDS011;10854;45.922;6.716;2023-07-24T09:12:37;5.43;;;3.08;;
21386;SDS011;10854;45.922;6.716;2023-07-24T09:15:07;4.90;;;3.53;;
21386;SDS011;10854;45.922;6.716;2023-07-24T09:17:36;3.95;;;3.10;;
21386;SDS011;10854;45.922;6.716;2023-07-24T09:20:20;4.55;;;3.42;;
21386;SDS011;10854;45.922;6.716;2023-07-24T09:22:53;5.63;;;3.40;;
21386;SDS011;10854;45.922;6.716;2023-07-24T09:25:42;4.83;;;3.60;;
21386;SDS011;10854;45.922;6.716;2023-07-24T09:28:13;5.23;;;3.43;;
21386;SDS011;10854;45.922;6.716;2023-07-24T09:30:51;3.80;;;3.40;;
21386;SDS011;10854;45.922;6.716;2023-07-24T09:33:33;3.90;;;3.13;;
21386;SDS011;10854;45.922;6.716;2023-07-24T09:36:05;5.13;;;3.20;;
21386;SDS011;10854;45.922;6.716;2023-07-24T09:38:39;5.57;;;3.77;;
21386;SDS011;10854;45.922;6.716;2023-07-24T09:41:09;5.37;;;3.23;;
21386;SDS011;10854;45.922;6.716;2023-07-24T09:43:41;4.10;;;3.63;;
21386;SDS011;10854;45.922;6.716;2023-07-24T09:46:12;6.33;;;3.73;;
21386;SDS011;10854;45.922;6.716;2023-07-24T09:48:42;7.50;;;3.87;;
21386;SDS011;10854;45.922;6.716;2023-07-24T09:51:30;17.80;;;4.80;;
21386;SDS011;10854;45.922;6.716;2023-07-24T09:54:13;12.73;;;5.60;;
21386;SDS011;10854;45.922;6.716;2023-07-24T09:56:46;15.70;;;5.63;;
21386;SDS011;10854;45.922;6.716;2023-07-24T09:59:19;12.20;;;5.20;;
21386;SDS011;10854;45.922;6.716;2023-07-24T10:01:49;12.23;;;5.63;;
21386;SDS011;10854;45.922;6.716;2023-07-24T10:04:19;8.07;;;5.30;;
21386;SDS011;10854;45.922;6.716;2023-07-24T10:06:48;7.70;;;4.40;;
21386;SDS011;10854;45.922;6.716;2023-07-24T10:09:17;7.97;;;4.50;;
21386;SDS011;10854;45.922;6.716;2023-07-24T10:11:50;6.50;;;4.40;;
21386;SDS011;10854;45.922;6.716;2023-07-24T10:14:20;6.47;;;5.00;;
21386;SDS011;10854;45.922;6.716;2023-07-24T10:16:49;5.47;;;4.20;;
21386;SDS011;10854;45.922;6.716;2023-07-24T10:19:34;11.77;;;5.17;;
21386;SDS011;10854;45.922;6.716;2023-07-24T10:22:05;12.87;;;6.23;;
21386;SDS011;10854;45.922;6.716;2023-07-24T10:24:34;16.47;;;6.57;;
21386;SDS011;10854;45.922;6.716;2023-07-24T10:27:06;15.07;;;7.03;;
21386;SDS011;10854;45.922;6.716;2023-07-24T10:29:35;12.00;;;7.37;;
21386;SDS011;10854;45.922;6.716;2023-07-24T10:32:05;9.53;;;6.47;;
21386;SDS011;10854;45.922;6.716;2023-07-24T10:34:47;10.40;;;6.60;;
21386;SDS011;10854;45.922;6.716;2023-07-24T10:37:31;12.30;;;6.43;;
21386;SDS011;10854;45.922;6.716;2023-07-24T10:40:05;8.97;;;5.70;;
21386;SDS011;10854;45.922;6.716;2023-07-24T10:42:34;8.57;;;5.63;;
21386;SDS011;10854;45.922;6.716;2023-07-24T10:45:06;7.30;;;5.33;;
21386;SDS011;10854;45.922;6.716;2023-07-24T10:47:37;6.93;;;4.67;;
21386;SDS011;10854;45.922;6.716;2023-07-24T10:50:06;5.87;;;4.87;;
21386;SDS011;10854;45.922;6.716;2023-07-24T10:52:35;7.23;;;4.67;;
21386;SDS011;10854;45.922;6.716;2023-07-24T10:55:03;5.57;;;4.30;;
21386;SDS011;10854;45.922;6.716;2023-07-24T10:57:32;7.03;;;4.60;;
21386;SDS011;10854;45.922;6.716;2023-07-24T11:00:01;7.23;;;4.10;;
21386;SDS011;10854;45.922;6.716;2023-07-24T11:02:30;6.80;;;3.90;;
21386;SDS011;10854;45.922;6.716;2023-07-24T11:04:59;5.93;;;4.13;;
21386;SDS011;10854;45.922;6.716;2023-07-24T11:07:31;4.90;;;3.80;;
21386;SDS011;10854;45.922;6.716;2023-07-24T11:10:00;5.47;;;4.07;;
21386;SDS011;10854;45.922;6.716;2023-07-24T11:12:30;7.23;;;3.90;;
21386;SDS011;10854;45.922;6.716;2023-07-24T11:14:59;7.47;;;4.57;;
21386;SDS011;10854;45.922;6.716;2023-07-24T11:17:35;6.97;;;4.40;;
21386;SDS011;10854;45.922;6.716;2023-07-24T11:20:07;7.72;;;4.40;;
21386;SDS011;10854;45.922;6.716;2023-07-24T11:22:41;9.57;;;4.13;;
21386;SDS011;10854;45.922;6.716;2023-07-24T11:25:11;5.90;;;4.13;;
21386;SDS011;10854;45.922;6.716;2023-07-24T11:27:43;10.95;;;4.63;;
21386;SDS011;10854;45.922;6.716;2023-07-24T11:30:11;8.07;;;4.57;;
21386;SDS011;10854;45.922;6.716;2023-07-24T11:32:48;8.02;;;4.40;;
21386;SDS011;10854;45.922;6.716;2023-07-24T11:35:17;7.20;;;4.38;;
21386;SDS011;10854;45.922;6.716;2023-07-24T11:37:47;5.30;;;3.95;;
21386;SDS011;10854;45.922;6.716;2023-07-24T11:40:15;6.22;;;4.60;;
21386;SDS011;10854;45.922;6.716;2023-07-24T11:42:44;7.28;;;4.63;;
21386;SDS011;10854;45.922;6.716;2023-07-24T11:45:13;6.85;;;4.25;;
21386;SDS011;10854;45.922;6.716;2023-07-24T11:47:42;9.43;;;4.45;;
21386;SDS011;10854;45.922;6.716;2023-07-24T11:50:12;5.68;;;4.10;;
21386;SDS011;10854;45.922;6.716;2023-07-24T11:52:42;7.10;;;4.00;;
21386;SDS011;10854;45.922;6.716;2023-07-24T11:55:16;6.28;;;4.30;;
21386;SDS011;10854;45.922;6.716;2023-07-24T11:57:58;5.28;;;4.10;;
21386;SDS011;10854;45.922;6.716;2023-07-24T12:00:27;5.93;;;3.67;;
21386;SDS011;10854;45.922;6.716;2023-07-24T12:03:00;7.63;;;4.35;;
21386;SDS011;10854;45.922;6.716;2023-07-24T12:05:41;5.85;;;4.10;;
21386;SDS011;10854;45.922;6.716;2023-07-24T12:08:12;7.28;;;4.45;;
21386;SDS011;10854;45.922;6.716;2023-07-24T12:10:45;8.63;;;4.80;;
21386;SDS011;10854;45.922;6.716;2023-07-24T12:13:13;6.10;;;4.03;;
21386;SDS011;10854;45.922;6.716;2023-07-24T12:15:43;6.43;;;4.10;;
21386;SDS011;10854;45.922;6.716;2023-07-24T12:18:12;6.28;;;4.03;;
21386;SDS011;10854;45.922;6.716;2023-07-24T12:20:40;7.43;;;4.55;;
21386;SDS011;10854;45.922;6.716;2023-07-24T12:23:09;8.05;;;4.32;;
21386;SDS011;10854;45.922;6.716;2023-07-24T12:25:37;6.28;;;4.07;;
21386;SDS011;10854;45.922;6.716;2023-07-24T12:28:06;6.15;;;3.83;;
21386;SDS011;10854;45.922;6.716;2023-07-24T12:30:34;6.80;;;4.22;;
21386;SDS011;10854;45.922;6.716;2023-07-24T12:33:03;6.88;;;4.10;;
21386;SDS011;10854;45.922;6.716;2023-07-24T12:35:32;6.43;;;4.30;;
21386;SDS011;10854;45.922;6.716;2023-07-24T12:38:01;6.68;;;4.15;;
21386;SDS011;10854;45.922;6.716;2023-07-24T12:40:29;6.80;;;4.68;;
21386;SDS011;10854;45.922;6.716;2023-07-24T12:42:58;7.28;;;4.43;;
21386;SDS011;10854;45.922;6.716;2023-07-24T12:45:26;5.80;;;4.15;;
21386;SDS011;10854;45.922;6.716;2023-07-24T12:47:55;6.03;;;4.28;;
21386;SDS011;10854;45.922;6.716;2023-07-24T12:50:23;6.70;;;4.13;;
21386;SDS011;10854;45.922;6.716;2023-07-24T12:52:52;6.35;;;4.25;;
21386;SDS011;10854;45.922;6.716;2023-07-24T12:55:20;7.28;;;4.20;;
21386;SDS011;10854;45.922;6.716;2023-07-24T12:57:48;7.40;;;4.07;;
21386;SDS011;10854;45.922;6.716;2023-07-24T13:00:17;7.95;;;3.95;;
21386;SDS011;10854;45.922;6.716;2023-07-24T13:02:45;5.50;;;4.10;;
21386;SDS011;10854;45.922;6.716;2023-07-24T13:05:14;8.88;;;4.38;;
21386;SDS011;10854;45.922;6.716;2023-07-24T13:07:42;7.40;;;4.28;;
21386;SDS011;10854;45.922;6.716;2023-07-24T13:10:13;8.13;;;4.35;;
21386;SDS011;10854;45.922;6.716;2023-07-24T13:12:42;5.97;;;4.00;;
21386;SDS011;10854;45.922;6.716;2023-07-24T13:15:12;6.05;;;4.53;;
21386;SDS011;10854;45.922;6.716;2023-07-24T13:17:40;7.63;;;4.22;;
21386;SDS011;10854;45.922;6.716;2023-07-24T13:20:09;8.30;;;4.43;;
21386;SDS011;10854;45.922;6.716;2023-07-24T13:22:38;9.15;;;4.45;;
21386;SDS011;10854;45.922;6.716;2023-07-24T13:25:07;13.57;;;4.43;;
21386;SDS011;10854;45.922;6.716;2023-07-24T13:27:35;7.53;;;4.57;;
21386;SDS011;10854;45.922;6.716;2023-07-24T13:30:04;6.43;;;4.63;;
21386;SDS011;10854;45.922;6.716;2023-07-24T13:32:33;9.20;;;4.85;;
21386;SDS011;10854;45.922;6.716;2023-07-24T13:35:02;9.23;;;4.20;;
21386;SDS011;10854;45.922;6.716;2023-07-24T13:37:31;8.02;;;4.72;;
21386;SDS011;10854;45.922;6.716;2023-07-24T13:40:00;7.57;;;4.15;;
21386;SDS011;10854;45.922;6.716;2023-07-24T13:42:29;6.18;;;4.32;;
21386;SDS011;10854;45.922;6.716;2023-07-24T13:45:00;9.95;;;4.47;;
21386;SDS011;10854;45.922;6.716;2023-07-24T13:47:28;7.90;;;4.75;;
21386;SDS011;10854;45.922;6.716;2023-07-24T13:49:59;8.13;;;4.45;;
21386;SDS011;10854;45.922;6.716;2023-07-24T13:52:30;12.77;;;5.07;;
21386;SDS011;10854;45.922;6.716;2023-07-24T13:54:59;6.50;;;4.20;;
21386;SDS011;10854;45.922;6.716;2023-07-24T13:57:28;7.05;;;4.45;;
21386;SDS011;10854;45.922;6.716;2023-07-24T13:59:59;7.60;;;4.13;;
21386;SDS011;10854;45.922;6.716;2023-07-24T14:02:29;7.32;;;4.47;;
21386;SDS011;10854;45.922;6.716;2023-07-24T14:04:58;7.07;;;4.55;;
21386;SDS011;10854;45.922;6.716;2023-07-24T14:07:27;6.53;;;4.10;;
21386;SDS011;10854;45.922;6.716;2023-07-24T14:09:57;10.52;;;4.68;;
21386;SDS011;10854;45.922;6.716;2023-07-24T14:12:25;6.45;;;4.78;;
21386;SDS011;10854;45.922;6.716;2023-07-24T14:14:54;10.95;;;4.70;;
21386;SDS011;10854;45.922;6.716;2023-07-24T14:17:23;9.40;;;4.80;;
21386;SDS011;10854;45.922;6.716;2023-07-24T14:19:51;10.30;;;5.25;;
21386;SDS011;10854;45.922;6.716;2023-07-24T14:22:20;10.00;;;4.80;;
21386;SDS011;10854;45.922;6.716;2023-07-24T14:24:48;7.88;;;4.72;;
21386;SDS011;10854;45.922;6.716;2023-07-24T14:27:18;6.93;;;4.97;;
21386;SDS011;10854;45.922;6.716;2023-07-24T14:29:47;10.93;;;4.60;;
21386;SDS011;10854;45.922;6.716;2023-07-24T14:32:15;6.05;;;2.63;;
21386;SDS011;10854;45.922;6.716;2023-07-24T14:34:45;4.28;;;2.00;;
21386;SDS011;10854;45.922;6.716;2023-07-24T14:37:18;5.68;;;2.30;;
21386;SDS011;10854;45.922;6.716;2023-07-24T14:39:47;3.22;;;2.15;;
21386;SDS011;10854;45.922;6.716;2023-07-24T14:42:18;4.25;;;2.33;;
21386;SDS011;10854;45.922;6.716;2023-07-24T14:44:46;2.55;;;2.30;;
21386;SDS011;10854;45.922;6.716;2023-07-24T14:47:15;4.18;;;2.33;;
21386;SDS011;10854;45.922;6.716;2023-07-24T14:49:44;4.75;;;2.50;;
21386;SDS011;10854;45.922;6.716;2023-07-24T14:52:13;3.85;;;2.40;;
21386;SDS011;10854;45.922;6.716;2023-07-24T14:54:41;3.05;;;2.47;;
21386;SDS011;10854;45.922;6.716;2023-07-24T14:57:10;4.55;;;3.00;;
21386;SDS011;10854;45.922;6.716;2023-07-24T14:59:45;5.28;;;2.80;;
21386;SDS011;10854;45.922;6.716;2023-07-24T15:02:13;4.05;;;2.78;;